Time;durP1;ratioP1;P1;durP2;ratioP2;P2;SDS_P1;SDS_P2;PMS_P1;PMS_P2;Temp;Humidity;BMP_temperature;BMP_pressure;BME280_temperature;BME280_humidity;BME280_pressure;Samples;Min_cycle;Max_cycle;Signal;HPM_P1;HPM_P2
2024/01/20 00:02:04;;;;;;;15.03;5.97;;;-1.70;99.90;;;;;;5046493;28;20203;-87
2024/01/20 00:04:32;;;;;;;5.93;4.17;;;;;;;;;;5067476;28;20446;-85
2024/01/20 00:06:58;;;;;;;6.97;3.80;;;;;;;;;;5066515;28;20275;-87
2024/01/20 00:09:24;;;;;;;9.83;5.70;;;;;;;;;;5066301;28;20220;-85
2024/01/20 00:11:50;;;;;;;7.10;3.40;;;;;;;;;;5063638;28;20872;-87
2024/01/20 00:14:16;;;;;;;6.50;4.30;;;;;;;;;;5066980;28;20843;-85
2024/01/20 00:16:42;;;;;;;11.23;5.33;;;;;;;;;;5046126;28;20437;-86
2024/01/20 00:19:08;;;;;;;12.27;3.67;;;;;;;;;;5070649;28;20523;-86
2024/01/20 00:21:34;;;;;;;1.70;1.57;;;;;;;;;;5064942;28;20703;-86
2024/01/20 00:24:00;;;;;;;3.25;3.05;;;;;;;;;;5055352;28;21547;-87
2024/01/20 00:26:26;;;;;;;5.57;3.45;;;;;;;;;;5052834;28;20336;-86
2024/01/20 00:28:52;;;;;;;2.77;2.57;;;;;;;;;;5051779;28;20757;-86
2024/01/20 00:31:18;;;;;;;7.33;3.37;;;;;;;;;;5036480;28;21208;-85
2024/01/20 00:33:44;;;;;;;4.93;2.73;;;;;;;;;;5055130;28;20450;-84
2024/01/20 00:36:10;;;;;;;9.38;2.20;;;;;;;;;;5055873;28;20431;-87
2024/01/20 00:38:38;;;;;;;6.90;4.50;;;;;;;;;;5058794;28;20199;-84
2024/01/20 00:41:05;;;;;;;6.63;5.00;;;;;;;;;;5039414;28;20516;-86
2024/01/20 00:43:32;;;;;;;9.27;2.63;;;;;;;;;;5051489;28;20335;-85
2024/01/20 00:45:58;;;;;;;2.22;2.00;;;;;;;;;;5039119;28;20183;-87
2024/01/20 00:48:23;;;;;;;35.50;3.92;;;-2.20;99.90;;;;;;5065915;28;20275;-86
2024/01/20 00:50:50;;;;;;;4.17;3.77;;;-2.20;99.90;;;;;;5066104;28;20212;-86
2024/01/20 00:53:16;;;;;;;4.35;3.58;;;;;;;;;;5063949;28;20184;-87
2024/01/20 00:55:42;;;;;;;10.95;4.63;;;;;;;;;;5050122;28;20211;-87
2024/01/20 00:58:08;;;;;;;5.30;3.77;;;;;;;;;;5039180;28;20204;-87
2024/01/20 01:00:34;;;;;;;1.53;1.50;;;;;;;;;;5041442;28;20462;-88
2024/01/20 01:03:00;;;;;;;6.00;3.40;;;;;;;;;;5064275;28;20443;-87
2024/01/20 01:05:26;;;;;;;5.93;3.70;;;;;;;;;;5046617;28;20835;-85
2024/01/20 01:07:52;;;;;;;5.30;2.93;;;;;;;;;;5042960;28;20539;-87
2024/01/20 01:10:18;;;;;;;4.18;3.63;;;-2.20;99.90;;;;;;5059523;28;20474;-87
2024/01/20 01:12:44;;;;;;;5.17;4.87;;;;;;;;;;5060437;28;20196;-86
2024/01/20 01:15:10;;;;;;;15.93;3.23;;;;;;;;;;5062906;28;20192;-87
2024/01/20 01:17:35;;;;;;;1.77;1.67;;;-2.30;99.90;;;;;;5061368;28;20434;-86
2024/01/20 01:20:01;;;;;;;9.17;6.40;;;-2.40;99.90;;;;;;5056594;28;20207;-87
2024/01/20 01:22:27;;;;;;;8.53;4.53;;;;;;;;;;5046697;28;20196;-85
2024/01/20 01:24:54;;;;;;;7.17;4.10;;;;;;;;;;5038558;28;20454;-85
2024/01/20 01:27:20;;;;;;;3.90;1.23;;;;;;;;;;5056651;28;20969;-86
2024/01/20 01:29:46;;;;;;;3.90;2.57;;;;;;;;;;5065515;28;20216;-87
2024/01/20 01:32:12;;;;;;;4.70;3.47;;;;;;;;;;5041523;28;20454;-86
2024/01/20 01:34:38;;;;;;;8.60;6.03;;;;;;;;;;5038491;28;20192;-86
2024/01/20 01:37:04;;;;;;;4.93;3.50;;;;;;;;;;5035909;28;20886;-87
2024/01/20 01:39:30;;;;;;;3.10;2.53;;;;;;;;;;5054540;28;20876;-84
2024/01/20 01:41:56;;;;;;;5.30;3.67;;;;;;;;;;5052828;28;20187;-87
2024/01/20 01:44:21;;;;;;;3.70;2.23;;;;;;;;;;5059949;28;20451;-86
2024/01/20 01:46:48;;;;;;;4.47;3.70;;;;;;;;;;5060306;28;20445;-86
2024/01/20 01:49:14;;;;;;;6.55;3.45;;;;;;;;;;5036740;28;20456;-86
2024/01/20 01:51:40;;;;;;;3.20;2.67;;;;;;;;;;5041464;28;20195;-87
2024/01/20 01:54:08;;;;;;;4.57;3.47;;;-2.70;99.90;;;;;;5054127;28;20287;-86
2024/01/20 01:56:34;;;;;;;2.83;2.67;;;;;;;;;;5057768;28;20542;-84
2024/01/20 01:59:00;;;;;;;2.03;1.83;;;;;;;;;;5058975;28;20200;-86
2024/01/20 02:01:26;;;;;;;3.42;2.38;;;;;;;;;;5068066;28;20223;-85
2024/01/20 02:03:52;;;;;;;2.50;1.80;;;;;;;;;;5062400;28;20237;-86
2024/01/20 02:06:18;;;;;;;4.80;4.10;;;;;;;;;;5044051;28;20808;-85
2024/01/20 02:08:44;;;;;;;5.55;3.50;;;;;;;;;;5037649;28;20188;-86
2024/01/20 02:11:10;;;;;;;7.05;2.80;;;;;;;;;;5053339;28;20207;-87
2024/01/20 02:13:36;;;;;;;3.65;2.15;;;;;;;;;;5054903;28;20188;-87
2024/01/20 02:16:03;;;;;;;8.98;2.15;;;-2.80;99.90;;;;;;5039044;28;20191;-86
2024/01/20 02:18:29;;;;;;;0.93;0.60;;;-2.90;99.90;;;;;;5057238;28;20195;-87
2024/01/20 02:20:55;;;;;;;8.02;3.30;;;;;;;;;;5056395;28;20724;-87
2024/01/20 02:23:21;;;;;;;4.25;2.97;;;;;;;;;;5061974;28;20315;-86
2024/01/20 02:25:48;;;;;;;9.00;5.03;;;;;;;;;;5063992;28;20290;-88
2024/01/20 02:28:14;;;;;;;14.70;3.50;;;;;;;;;;5046214;28;20197;-86
2024/01/20 02:30:41;;;;;;;4.70;1.98;;;-3.10;99.90;;;;;;5045392;28;20216;-89
2024/01/20 02:33:08;;;;;;;3.60;2.33;;;;;;;;;;5061670;28;20192;-85
2024/01/20 02:35:34;;;;;;;8.63;3.75;;;;;;;;;;5055365;28;20192;-86
2024/01/20 02:38:01;;;;;;;1.90;1.67;;;;;;;;;;5059035;28;20642;-90
2024/01/20 02:40:27;;;;;;;3.15;2.55;;;;;;;;;;5058035;28;20466;-88
2024/01/20 02:42:53;;;;;;;6.78;4.55;;;;;;;;;;5039778;28;20188;-89
2024/01/20 02:45:19;;;;;;;4.87;2.87;;;;;;;;;;5036084;28;20562;-89
2024/01/20 02:47:45;;;;;;;8.47;4.50;;;;;;;;;;5043867;28;20537;-88
2024/01/20 02:50:11;;;;;;;4.90;3.30;;;-3.40;99.90;;;;;;5046916;28;20469;-88
2024/01/20 02:52:37;;;;;;;10.85;3.65;;;;;;;;;;5046436;28;20894;-88
2024/01/20 02:55:03;;;;;;;9.98;4.35;;;-3.40;99.90;;;;;;5046840;28;20184;-89
2024/01/20 02:57:30;;;;;;;2.97;2.20;;;;;;;;;;5068669;28;20208;-88
2024/01/20 02:59:55;;;;;;;13.30;3.40;;;;;;;;;;5064735;28;20204;-88
2024/01/20 03:02:22;;;;;;;1.73;1.67;;;;;;;;;;5043510;28;20260;-89
2024/01/20 03:04:48;;;;;;;2.67;2.47;;;;;;;;;;5062596;28;20434;-86
2024/01/20 03:07:14;;;;;;;3.93;3.63;;;;;;;;;;5061268;28;20254;-87
2024/01/20 03:09:39;;;;;;;17.98;8.05;;;-3.50;99.90;;;;;;5065483;28;20528;-88
2024/01/20 03:12:05;;;;;;;12.43;6.13;;;-3.40;99.90;;;;;;5038965;28;20187;-88
2024/01/20 03:14:31;;;;;;;3.87;3.53;;;;;;;;;;5041398;28;20189;-87
2024/01/20 03:16:57;;;;;;;5.93;3.63;;;;;;;;;;5047441;28;20451;-88
2024/01/20 03:19:23;;;;;;;3.80;2.67;;;;;;;;;;5061372;28;20522;-89
2024/01/20 03:21:49;;;;;;;4.17;3.83;;;-3.10;99.90;;;;;;5065291;28;20438;-88
2024/01/20 03:24:18;;;;;;;7.10;3.93;;;-3.10;99.90;;;;;;5064099;28;20462;-88
2024/01/20 03:26:45;;;;;;;3.88;3.58;;;-3.10;99.90;;;;;;5068767;28;20252;-89
2024/01/20 03:29:11;;;;;;;12.38;4.50;;;-2.90;99.90;;;;;;5038372;28;20200;-88
2024/01/20 03:31:37;;;;;;;7.17;6.00;;;;;;;;;;5048963;28;20543;-87
2024/01/20 03:34:03;;;;;;;5.53;4.57;;;;;;;;;;5043079;28;20180;-88
2024/01/20 03:36:29;;;;;;;3.00;2.25;;;;;;;;;;5044679;28;20445;-88
2024/01/20 03:38:55;;;;;;;3.80;2.70;;;;;;;;;;5063193;28;20176;-88
2024/01/20 03:41:21;;;;;;;1.70;1.60;;;;;;;;;;5058763;28;20435;-89
2024/01/20 03:43:46;;;;;;;6.03;3.73;;;;;;;;;;5064431;28;20230;-87
2024/01/20 03:46:12;;;;;;;5.93;2.40;;;;;;;;;;5047692;28;21129;-87
2024/01/20 03:48:39;;;;;;;4.43;3.30;;;;;;;;;;5068970;28;20438;-88
2024/01/20 03:51:04;;;;;;;3.35;2.38;;;-3.20;99.90;;;;;;5045263;28;20474;-88
2024/01/20 03:53:30;;;;;;;4.63;2.43;;;-3.30;99.90;;;;;;5066363;28;20192;-88
2024/01/20 03:55:56;;;;;;;3.07;2.20;;;;;;;;;;5061202;28;20196;-89
2024/01/20 03:58:22;;;;;;;7.00;2.63;;;;;;;;;;5044748;28;20199;-89
2024/01/20 04:00:48;;;;;;;4.87;3.53;;;;;;;;;;5040841;28;20467;-88
2024/01/20 04:03:14;;;;;;;2.73;2.53;;;;;;;;;;5061486;28;21326;-88
2024/01/20 04:05:40;;;;;;;5.60;4.87;;;;;;;;;;5060350;28;20439;-88
2024/01/20 04:08:06;;;;;;;10.25;4.43;;;;;;;;;;5057047;28;20809;-88
2024/01/20 04:10:32;;;;;;;25.45;4.25;;;;;;;;;;5056556;28;20208;-88
2024/01/20 04:12:58;;;;;;;19.23;3.70;;;;;;;;;;5038974;28;20184;-88
2024/01/20 04:15:24;;;;;;;1.87;1.80;;;;;;;;;;5041103;28;21236;-87
2024/01/20 04:17:52;;;;;;;2.50;2.23;;;;;;;;;;5047211;28;20514;-88
2024/01/20 04:20:18;;;;;;;3.22;2.92;;;;;;;;;;5043055;28;20864;-88
2024/01/20 04:22:44;;;;;;;6.32;2.95;;;;;;;;;;5061830;28;20195;-88
2024/01/20 04:25:10;;;;;;;9.37;2.80;;;-3.10;99.90;;;;;;5061322;28;20226;-88
2024/01/20 04:27:40;;;;;;;8.18;4.70;;;;;;;;;;5042985;28;20437;-88
2024/01/20 04:30:07;;;;;;;9.75;3.85;;;-3.20;99.90;;;;;;5067610;28;20313;-89
2024/01/20 04:32:33;;;;;;;4.25;3.85;;;;;;;;;;5065246;28;20192;-88
2024/01/20 04:34:59;;;;;;;4.47;4.27;;;;;;;;;;5065888;28;20206;-89
2024/01/20 04:37:25;;;;;;;10.57;3.20;;;;;;;;;;5039770;28;20439;-88
2024/01/20 04:39:51;;;;;;;14.37;4.87;;;;;;;;;;5039813;28;20462;-88
2024/01/20 04:42:17;;;;;;;8.63;2.27;;;;;;;;;;5055590;28;20442;-88
2024/01/20 04:44:42;;;;;;;8.03;3.37;;;;;;;;;;5041218;28;20846;-87
2024/01/20 04:47:08;;;;;;;6.60;5.60;;;;;;;;;;5055849;28;21570;-89
2024/01/20 04:49:34;;;;;;;11.10;5.17;;;;;;;;;;5058810;28;20512;-88
2024/01/20 04:52:01;;;;;;;5.33;3.57;;;;;;;;;;5040857;28;20439;-87
2024/01/20 04:54:28;;;;;;;2.72;2.15;;;;;;;;;;5057159;28;20533;-88
2024/01/20 04:56:54;;;;;;;8.48;5.97;;;;;;;;;;5058296;28;20215;-88
2024/01/20 04:59:20;;;;;;;4.60;4.10;;;;;;;;;;5058603;28;20212;-87
2024/01/20 05:01:48;;;;;;;3.67;2.60;;;;;;;;;;5053964;28;20543;-88
2024/01/20 05:04:14;;;;;;;14.02;5.32;;;;;;;;;;5060947;28;20451;-87
2024/01/20 05:06:40;;;;;;;3.17;2.13;;;;;;;;;;5042514;28;20199;-88
2024/01/20 05:09:06;;;;;;;9.27;4.00;;;;;;;;;;5059099;28;20465;-88
2024/01/20 05:11:32;;;;;;;6.40;3.88;;;;;;;;;;5044114;28;20295;-88
2024/01/20 05:13:58;;;;;;;15.13;6.45;;;;;;;;;;5038549;28;20188;-88
2024/01/20 05:16:24;;;;;;;5.90;1.63;;;;;;;;;;5058462;28;20254;-89
2024/01/20 05:18:51;;;;;;;4.30;3.60;;;;;;;;;;5041382;28;20438;-89
2024/01/20 05:21:18;;;;;;;4.55;4.28;;;;;;;;;;5062274;28;20191;-88
2024/01/20 05:23:44;;;;;;;10.52;3.45;;;;;;;;;;5061412;28;20279;-88
2024/01/20 05:26:09;;;;;;;7.70;4.10;;;;;;;;;;5061366;28;21681;-88
2024/01/20 05:28:35;;;;;;;11.77;4.80;;;;;;;;;;5040131;28;21234;-89
2024/01/20 05:31:01;;;;;;;4.10;1.80;;;;;;;;;;5041507;28;20508;-88
2024/01/20 05:33:27;;;;;;;3.90;2.97;;;;;;;;;;5055349;28;20435;-88
2024/01/20 05:35:53;;;;;;;1.50;1.40;;;;;;;;;;5063678;28;20443;-88
2024/01/20 05:38:19;;;;;;;2.85;2.65;;;-4.00;99.90;;;;;;5044783;28;20529;-89
2024/01/20 05:40:45;;;;;;;17.43;2.97;;;;;;;;;;5045850;28;20793;-89
2024/01/20 05:43:11;;;;;;;4.90;2.73;;;;;;;;;;5058099;28;20668;-88
2024/01/20 05:45:36;;;;;;;2.50;1.90;;;;;;;;;;5042212;28;20442;-88
2024/01/20 05:48:02;;;;;;;4.30;1.70;;;;;;;;;;5037992;28;20523;-88
2024/01/20 05:50:29;;;;;;;4.93;4.30;;;;;;;;;;5034858;28;21027;-88
2024/01/20 05:52:55;;;;;;;6.28;4.82;;;;;;;;;;5059722;28;20435;-88
2024/01/20 05:55:21;;;;;;;18.13;6.23;;;;;;;;;;5042706;28;20189;-88
2024/01/20 05:57:46;;;;;;;4.27;2.00;;;-4.10;99.90;;;;;;5052335;28;20529;-88
2024/01/20 06:00:12;;;;;;;2.67;2.37;;;-4.20;99.90;;;;;;5055713;28;20613;-89
2024/01/20 06:02:38;;;;;;;5.68;5.10;;;;;;;;;;5038190;28;20617;-89
2024/01/20 06:05:04;;;;;;;8.00;7.20;;;-4.30;99.90;;;;;;5055023;28;20200;-89
2024/01/20 06:07:30;;;;;;;6.73;2.10;;;;;;;;;;5052679;28;21162;-89
2024/01/20 06:09:56;;;;;;;3.38;2.88;;;;;;;;;;5035190;28;21796;-88
2024/01/20 06:12:22;;;;;;;5.30;4.80;;;;;;;;;;5053892;28;20196;-87
2024/01/20 06:14:48;;;;;;;13.33;3.00;;;;;;;;;;5052391;28;20422;-88
2024/01/20 06:17:14;;;;;;;4.63;2.97;;;;;;;;;;5051366;28;22133;-89
2024/01/20 06:19:40;;;;;;;9.90;4.93;;;;;;;;;;5057116;28;20457;-89
2024/01/20 06:22:06;;;;;;;4.67;3.90;;;;;;;;;;5049001;28;20435;-88
2024/01/20 06:24:31;;;;;;;6.20;4.37;;;;;;;;;;5055448;28;20434;-90
2024/01/20 06:26:57;;;;;;;5.10;4.20;;;;;;;;;;5052362;28;20442;-89
2024/01/20 06:29:23;;;;;;;5.20;4.00;;;;;;;;;;5050197;28;20454;-88
2024/01/20 06:31:49;;;;;;;21.57;5.47;;;;;;;;;;5055063;28;20577;-88
2024/01/20 06:34:15;;;;;;;5.18;2.72;;;;;;;;;;5059399;28;20450;-89
2024/01/20 06:36:41;;;;;;;5.93;4.10;;;;;;;;;;5059020;28;20212;-90
2024/01/20 06:39:07;;;;;;;11.30;5.57;;;;;;;;;;5058981;28;20204;-90
2024/01/20 06:41:33;;;;;;;8.33;5.13;;;;;;;;;;5034785;28;20434;-89
2024/01/20 06:43:59;;;;;;;12.67;5.00;;;;;;;;;;5040997;28;20442;-89
2024/01/20 06:46:25;;;;;;;6.25;4.78;;;;;;;;;;5042101;28;21100;-90
2024/01/20 06:48:51;;;;;;;15.30;9.73;;;;;;;;;;5060001;28;20184;-89
2024/01/20 06:51:17;;;;;;;10.13;4.43;;;;;;;;;;5062895;28;20477;-88
2024/01/20 06:53:43;;;;;;;4.25;3.03;;;;;;;;;;5060803;28;20431;-89
2024/01/20 06:56:09;;;;;;;6.25;1.65;;;-4.70;99.90;;;;;;5042633;28;20188;-89
2024/01/20 06:58:35;;;;;;;13.17;5.00;;;-4.60;99.90;;;;;;5057680;28;20969;-87
2024/01/20 07:01:00;;;;;;;13.48;6.35;;;-4.60;99.90;;;;;;5061794;28;20212;-87
2024/01/20 07:03:26;;;;;;;6.63;6.00;;;;;;;;;;5056709;28;20594;-87
2024/01/20 07:05:52;;;;;;;12.07;7.87;;;;;;;;;;5057840;28;20275;-87
2024/01/20 07:08:18;;;;;;;3.97;3.58;;;;;;;;;;5057627;28;21159;-89
2024/01/20 07:10:44;;;;;;;17.40;2.07;;;;;;;;;;5042941;28;20232;-89
2024/01/20 07:13:10;;;;;;;4.00;2.97;;;;;;;;;;5040899;28;20432;-88
2024/01/20 07:15:36;;;;;;;4.27;3.33;;;;;;;;;;5059933;28;20790;-87
2024/01/20 07:18:03;;;;;;;5.17;4.77;;;;;;;;;;5058082;28;20500;-89
2024/01/20 07:20:29;;;;;;;9.18;6.20;;;;;;;;;;5037807;28;20468;-88
2024/01/20 07:22:55;;;;;;;6.35;5.85;;;;;;;;;;5048939;28;20188;-87
2024/01/20 07:25:21;;;;;;;5.73;2.77;;;;;;;;;;5064495;28;20805;-87
2024/01/20 07:27:47;;;;;;;11.13;6.23;;;;;;;;;;5062857;28;20446;-87
2024/01/20 07:30:13;;;;;;;10.30;5.13;;;;;;;;;;5040486;28;20470;-87
2024/01/20 07:32:40;;;;;;;1.85;1.75;;;;;;;;;;5043126;28;20469;-87
2024/01/20 07:35:07;;;;;;;6.95;3.90;;;-4.50;99.90;;;;;;5039958;28;20176;-85
2024/01/20 07:37:36;;;;;;;17.70;6.38;;;;;;;;;;5052511;28;20181;-87
2024/01/20 07:40:02;;;;;;;9.63;5.13;;;;;;;;;;5058069;28;20208;-87
2024/01/20 07:42:28;;;;;;;16.92;5.10;;;;;;;;;;5044659;28;20656;-87
2024/01/20 07:44:54;;;;;;;9.47;4.87;;;;;;;;;;5047171;28;20283;-87
2024/01/20 07:47:20;;;;;;;14.32;5.65;;;;;;;;;;5040897;28;20442;-87
2024/01/20 07:49:46;;;;;;;7.77;4.97;;;;;;;;;;5039593;28;20460;-87
2024/01/20 07:52:12;;;;;;;9.40;5.23;;;-3.80;99.90;;;;;;5044234;28;20434;-87
2024/01/20 07:54:38;;;;;;;11.60;6.60;;;;;;;;;;5059991;28;20442;-86
2024/01/20 07:57:04;;;;;;;4.82;3.30;;;;;;;;;;5050408;28;20237;-88
2024/01/20 07:59:30;;;;;;;13.40;8.37;;;;;;;;;;5042434;28;20299;-87
2024/01/20 08:01:56;;;;;;;11.85;5.22;;;;;;;;;;5040216;28;20428;-87
2024/01/20 08:04:22;;;;;;;9.57;4.60;;;;;;;;;;5038936;28;20203;-87
2024/01/20 08:06:48;;;;;;;10.13;6.57;;;;;;;;;;5059417;28;20442;-86
2024/01/20 08:09:14;;;;;;;4.23;3.77;;;;;;;;;;5038001;28;20488;-86
2024/01/20 08:11:40;;;;;;;12.32;8.35;;;;;;;;;;5031754;28;20470;-87
2024/01/20 08:14:07;;;;;;;5.13;3.42;;;;;;;;;;5060795;28;20238;-87
2024/01/20 08:16:33;;;;;;;8.25;4.68;;;;;;;;;;5056728;28;20185;-86
2024/01/20 08:18:59;;;;;;;15.13;5.63;;;;;;;;;;5040614;28;20184;-86
2024/01/20 08:21:25;;;;;;;5.35;3.53;;;;;;;;;;5060798;28;21220;-88
2024/01/20 08:23:51;;;;;;;10.90;3.60;;;;;;;;;;5041776;28;20189;-88
2024/01/20 08:26:17;;;;;;;8.80;3.47;;;;;;;;;;5062093;28;20439;-88
2024/01/20 08:28:43;;;;;;;13.90;9.23;;;;;;;;;;5042255;28;20202;-88
2024/01/20 08:31:09;;;;;;;4.87;3.53;;;;;;;;;;5057460;28;20470;-86
2024/01/20 08:33:35;;;;;;;8.57;4.30;;;;;;;;;;5054321;28;20727;-87
2024/01/20 08:36:01;;;;;;;8.35;5.80;;;;;;;;;;5041726;28;20446;-87
2024/01/20 08:38:27;;;;;;;6.80;3.33;;;;;;;;;;5057205;28;20964;-88
2024/01/20 08:40:53;;;;;;;13.23;5.37;;;;;;;;;;5039961;28;21022;-86
2024/01/20 08:43:20;;;;;;;6.80;4.10;;;;;;;;;;5048683;28;20435;-85
2024/01/20 08:45:46;;;;;;;5.82;3.83;;;;;;;;;;5032062;28;20461;-87
2024/01/20 08:48:12;;;;;;;15.95;8.20;;;;;;;;;;5052790;28;20188;-87
2024/01/20 08:50:38;;;;;;;4.30;2.13;;;-1.90;99.90;;;;;;5055555;28;20203;-88
2024/01/20 08:53:04;;;;;;;7.43;5.77;;;;;;;;;;5028140;28;20271;-86
2024/01/20 08:55:30;;;;;;;6.03;5.63;;;;;;;;;;5035746;28;20667;-88
2024/01/20 08:57:56;;;;;;;14.10;4.80;;;;;;;;;;5053347;28;20185;-86
2024/01/20 09:00:23;;;;;;;5.53;4.75;;;;;;;;;;5053659;28;20455;-86
2024/01/20 09:02:48;;;;;;;9.15;3.47;;;;;;;;;;5056454;28;20184;-87
2024/01/20 09:05:17;;;;;;;10.43;5.80;;;;;;;;;;5054005;28;20211;-87
2024/01/20 09:07:43;;;;;;;23.10;5.57;;;;;;;;;;5040082;28;20447;-86
2024/01/20 09:10:09;;;;;;;10.50;7.03;;;-1.80;99.90;;;;;;5055401;28;20216;-84
2024/01/20 09:12:35;;;;;;;6.97;4.90;;;;;;;;;;5046665;28;20200;-85
2024/01/20 09:15:01;;;;;;;17.40;6.00;;;;;;;;;;5052413;28;20196;-85
2024/01/20 09:17:27;;;;;;;7.63;6.17;;;;;;;;;;5053903;28;20242;-84
2024/01/20 09:19:53;;;;;;;10.27;6.60;;;-0.80;99.90;;;;;;5035486;28;20458;-86
2024/01/20 09:22:19;;;;;;;11.43;6.67;;;;;;;;;;5041957;28;20507;-84
2024/01/20 09:24:44;;;;;;;9.33;8.47;;;;;;;;;;5036251;28;20891;-86
2024/01/20 09:27:10;;;;;;;14.97;10.40;;;;;;;;;;5040134;28;22803;-85
2024/01/20 09:29:36;;;;;;;12.57;8.03;;;;;;;;;;5060939;28;20466;-85
2024/01/20 09:32:02;;;;;;;13.80;6.33;;;;;;;;;;5040120;28;20438;-83
2024/01/20 09:34:28;;;;;;;10.47;5.97;;;;;;;;;;5044695;28;20469;-85
2024/01/20 09:36:54;;;;;;;8.90;3.63;;;;;;;;;;5040927;28;20830;-84
2024/01/20 09:39:20;;;;;;;11.87;5.00;;;;;;;;;;5043373;28;20471;-83
2024/01/20 09:41:47;;;;;;;10.63;5.53;;;-1.50;99.90;;;;;;5059386;28;20433;-83
2024/01/20 09:44:14;;;;;;;10.35;5.35;;;;;;;;;;5060457;28;20250;-86
2024/01/20 09:46:42;;;;;;;5.22;4.68;;;;;;;;;;5063312;28;20207;-83
2024/01/20 09:49:08;;;;;;;3.80;3.08;;;;;;;;;;5042580;28;20610;-85
2024/01/20 09:51:35;;;;;;;14.82;6.38;;;;;;;;;;5048457;28;20313;-85
2024/01/20 09:54:01;;;;;;;4.88;3.58;;;;;;;;;;5046416;28;20357;-85
2024/01/20 09:56:30;;;;;;;4.38;1.77;;;-2.00;99.90;;;;;;5065970;28;20220;-84
2024/01/20 09:58:58;;;;;;;6.38;5.72;;;-1.90;99.90;;;;;;5060524;28;20188;-84
2024/01/20 10:01:26;;;;;;;6.40;3.60;;;-1.80;99.90;;;;;;5065343;28;20180;-85
2024/01/20 10:03:53;;;;;;;11.70;7.50;;;-1.80;99.90;;;;;;5066283;28;20192;-85
2024/01/20 10:06:19;;;;;;;11.90;5.78;;;;;;;;;;5063059;28;20356;-83
2024/01/20 10:08:45;;;;;;;7.97;5.63;;;;;;;;;;5060861;28;20276;-84
2024/01/20 10:11:11;;;;;;;5.90;1.30;;;;;;;;;;5042971;28;20500;-86
2024/01/20 10:13:36;;;;;;;4.70;4.40;;;;;;;;;;5047059;28;20620;-85
2024/01/20 10:16:03;;;;;;;8.77;6.30;;;;;;;;;;5060829;28;20434;-85
2024/01/20 10:18:29;;;;;;;7.35;2.78;;;;;;;;;;5062551;28;20491;-85
2024/01/20 10:21:08;;;;;;;8.53;7.67;;;-2.30;99.90;;;;;;5038633;28;20817;-84
2024/01/20 10:23:35;;;;;;;19.90;6.28;;;-2.60;99.90;;;;;;5051289;28;20449;-84
2024/01/20 10:26:06;;;;;;;10.93;4.35;;;-2.30;99.90;;;;;;5065205;28;20693;-84
2024/01/20 10:28:33;;;;;;;7.35;4.43;;;-2.10;99.90;;;;;;5058733;28;20184;-84
2024/01/20 10:30:59;;;;;;;27.92;6.32;;;;;;;;;;5062442;28;20196;-83
2024/01/20 10:33:25;;;;;;;9.20;5.60;;;;;;;;;;5065455;28;20202;-85
2024/01/20 10:35:52;;;;;;;6.35;5.28;;;-2.10;99.90;;;;;;5046897;28;20457;-85
2024/01/20 10:38:21;;;;;;;5.78;3.85;;;-1.90;99.90;;;;;;5054202;28;21937;-84
2024/01/20 10:40:53;;;;;;;6.10;4.90;;;-2.10;99.90;;;;;;5058536;28;20267;-86
2024/01/20 10:43:20;;;;;;;15.73;7.15;;;;;;;;;;5042150;28;20241;-85
2024/01/20 10:46:15;;;;;;;6.53;2.53;;;-2.00;99.90;;;;;;5063614;28;20570;-85
2024/01/20 10:48:44;;;;;;;4.10;3.17;;;-1.80;99.90;;;;;;5063510;28;20192;-84
2024/01/20 10:51:14;;;;;;;12.57;7.20;;;-1.60;99.90;;;;;;5062702;28;20726;-85
2024/01/20 10:53:41;;;;;;;7.85;6.72;;;-1.50;99.90;;;;;;5066639;28;20183;-85
2024/01/20 10:56:08;;;;;;;10.95;9.73;;;-1.30;99.90;;;;;;5049621;28;20192;-86
2024/01/20 10:58:40;;;;;;;5.22;4.55;;;-1.10;99.90;;;;;;5064165;28;20181;-86
2024/01/20 11:01:07;;;;;;;11.77;6.65;;;;;;;;;;5059233;28;20210;-85
2024/01/20 11:03:33;;;;;;;13.40;5.35;;;;;;;;;;5066549;28;20862;-86
2024/01/20 11:05:59;;;;;;;11.65;5.43;;;;;;;;;;5043963;28;20195;-85
2024/01/20 11:08:25;;;;;;;11.83;9.13;;;-0.70;99.90;;;;;;5064595;28;20192;-85
2024/01/20 11:10:53;;;;;;;45.70;10.77;;;-0.40;99.90;;;;;;5063403;28;20489;-85
2024/01/20 11:13:19;;;;;;;22.60;9.52;;;;;;;;;;5064692;28;20180;-86
2024/01/20 11:15:50;;;;;;;17.67;8.38;;;0.20;99.90;;;;;;5049890;28;20278;-84
2024/01/20 11:18:20;;;;;;;14.25;5.03;;;0.20;99.90;;;;;;5040023;28;20187;-84
2024/01/20 11:21:02;;;;;;;9.00;5.75;;;0.20;99.90;;;;;;5064173;28;20200;-86
2024/01/20 11:23:28;;;;;;;17.75;9.25;;;;;;;;;;5045775;28;20441;-85
2024/01/20 11:25:55;;;;;;;14.15;6.78;;;0.00;99.90;;;;;;5049260;28;20276;-84
2024/01/20 11:28:32;;;;;;;24.15;7.07;;;0.30;99.90;;;;;;5065503;28;20212;-83
2024/01/20 11:30:58;;;;;;;13.43;7.93;;;0.90;99.90;;;;;;5040986;28;20287;-83
2024/01/20 11:33:24;;;;;;;12.98;8.00;;;1.40;99.90;;;;;;5069817;28;20246;-85
2024/01/20 11:35:52;;;;;;;20.90;7.72;;;1.40;99.90;;;;;;5043321;28;20233;-83
2024/01/20 11:38:18;;;;;;;16.35;9.02;;;1.90;99.90;;;;;;5061609;28;20727;-84
2024/01/20 11:40:44;;;;;;;15.73;7.93;;;;;;;;;;5062589;28;20284;-83
2024/01/20 11:43:13;;;;;;;16.43;7.87;;;;;;;;;;5063198;28;20227;-84
2024/01/20 11:45:39;;;;;;;22.85;9.93;;;2.70;99.90;;;;;;5066947;28;20445;-83
2024/01/20 11:48:06;;;;;;;11.55;8.98;;;2.90;99.90;;;;;;5048613;28;20272;-86
2024/01/20 11:50:32;;;;;;;11.93;5.47;;;;;;;;;;5066168;28;20275;-86
2024/01/20 11:52:58;;;;;;;17.03;7.73;;;;;;;;;;5044417;28;20180;-85
2024/01/20 11:55:24;;;;;;;15.00;6.90;;;;;;;;;;5064387;28;20438;-85
2024/01/20 11:57:50;;;;;;;15.57;7.80;;;;;;;;;;5043976;28;21309;-85
2024/01/20 12:00:16;;;;;;;13.77;7.75;;;2.10;99.90;;;;;;5049478;28;20472;-87
2024/01/20 12:02:47;;;;;;;12.88;6.05;;;2.30;99.90;;;;;;5067873;28;20185;-87
2024/01/20 12:05:14;;;;;;;18.33;8.70;;;2.20;99.90;;;;;;5039512;28;20192;-86
2024/01/20 12:07:40;;;;;;;18.92;6.07;;;2.10;99.90;;;;;;5064930;28;20187;-86
2024/01/20 12:10:05;;;;;;;16.40;9.05;;;1.90;99.90;;;;;;5062927;28;20228;-86
2024/01/20 12:12:31;;;;;;;23.60;8.77;;;;;;;;;;5064261;28;20229;-86
2024/01/20 12:14:57;;;;;;;19.65;9.80;;;;;;;;;;5050520;28;21119;-85
2024/01/20 12:17:24;;;;;;;22.00;8.67;;;2.20;99.90;;;;;;5064048;28;20193;-83
2024/01/20 12:19:50;;;;;;;24.92;7.78;;;;;;;;;;5062177;28;21644;-86
2024/01/20 12:22:16;;;;;;;12.30;5.47;;;;;;;;;;5050533;28;20181;-85
2024/01/20 12:24:48;;;;;;;11.63;7.22;;;2.00;99.90;;;;;;5066585;28;21884;-85
2024/01/20 12:27:15;;;;;;;6.57;5.72;;;1.90;99.90;;;;;;5071044;28;20184;-87
2024/01/20 12:29:41;;;;;;;27.88;5.15;;;;;;;;;;5045675;28;20752;-85
2024/01/20 12:32:08;;;;;;;13.88;6.60;;;;;;;;;;5046892;28;20188;-86
2024/01/20 12:34:33;;;;;;;11.07;5.90;;;1.90;99.90;;;;;;5063806;28;20618;-86
2024/01/20 12:36:59;;;;;;;21.50;7.30;;;;;;;;;;5066507;28;20207;-86
2024/01/20 12:39:25;;;;;;;9.10;6.87;;;;;;;;;;5062466;28;20601;-84
2024/01/20 12:41:53;;;;;;;10.55;5.78;;;2.00;99.90;;;;;;5056889;28;20478;-87
2024/01/20 12:44:19;;;;;;;14.90;7.22;;;;;;;;;;5044863;28;21648;-85
2024/01/20 12:46:45;;;;;;;14.27;6.30;;;;;;;;;;5059043;28;20269;-87
2024/01/20 12:49:10;;;;;;;19.58;8.05;;;-2.00;99.90;;;;;;5042645;28;20442;-85
2024/01/20 12:51:36;;;;;;;11.63;7.30;;;;;;;;;;5042572;28;20212;-85
2024/01/20 12:54:03;;;;;;;11.20;5.65;;;;;;;;;;5064238;28;20211;-83
2024/01/20 12:56:29;;;;;;;31.65;9.35;;;2.60;99.90;;;;;;5056189;28;20235;-86
2024/01/20 12:58:56;;;;;;;11.38;6.15;;;2.70;99.90;;;;;;5055176;28;20191;-86
2024/01/20 13:01:23;;;;;;;15.50;7.90;;;2.70;99.90;;;;;;5043164;28;20183;-85
2024/01/20 13:03:52;;;;;;;11.13;6.35;;;2.80;99.90;;;;;;5057759;28;20193;-87
2024/01/20 13:06:18;;;;;;;18.65;7.50;;;;;;;;;;5032452;28;20199;-86
2024/01/20 13:08:44;;;;;;;21.52;7.18;;;3.00;99.90;;;;;;5060114;28;20191;-86
2024/01/20 13:11:09;;;;;;;12.70;5.90;;;;;;;;;;5055412;28;20212;-85
2024/01/20 13:13:36;;;;;;;15.50;8.07;;;3.40;99.90;;;;;;5038014;28;20188;-86
2024/01/20 13:16:02;;;;;;;16.25;9.32;;;3.50;99.90;;;;;;5064794;28;20434;-88
2024/01/20 13:18:30;;;;;;;19.33;7.10;;;;;;;;;;5064834;28;20211;-85
2024/01/20 13:20:56;;;;;;;18.27;8.23;;;;;;;;;;5048129;28;20196;-87
2024/01/20 13:23:22;;;;;;;19.80;8.63;;;;;;;;;;5064876;28;20615;-85
2024/01/20 13:25:49;;;;;;;19.90;9.77;;;;;;;;;;5046288;28;20447;-85
2024/01/20 13:28:17;;;;;;;14.75;8.20;;;;;;;;;;5042525;28;20541;-85
2024/01/20 13:30:43;;;;;;;17.05;7.60;;;;;;;;;;5057754;28;22563;-86
2024/01/20 13:33:09;;;;;;;10.70;6.25;;;3.00;99.90;;;;;;5055661;28;20188;-87
2024/01/20 13:35:34;;;;;;;14.47;4.43;;;;;;;;;;5044696;28;20294;-84
2024/01/20 13:38:00;;;;;;;19.70;8.57;;;;;;;;;;5035121;28;20203;-84
2024/01/20 13:40:26;;;;;;;12.18;7.05;;;;;;;;;;5053671;28;20446;-87
2024/01/20 13:42:52;;;;;;;9.40;5.00;;;;;;;;;;5051117;28;20220;-87
2024/01/20 13:45:18;;;;;;;7.63;5.40;;;;;;;;;;5034167;28;21140;-84
2024/01/20 13:47:44;;;;;;;17.70;8.90;;;;;;;;;;5052359;28;20704;-86
2024/01/20 13:50:10;;;;;;;11.40;5.73;;;;;;;;;;5051343;28;20466;-85
2024/01/20 13:52:36;;;;;;;19.70;8.87;;;;;;;;;;5057447;28;20437;-87
2024/01/20 13:55:04;;;;;;;20.90;6.90;;;1.90;99.90;;;;;;5051374;28;20518;-87
2024/01/20 13:57:30;;;;;;;16.58;8.02;;;1.80;99.90;;;;;;5050183;28;20226;-86
2024/01/20 13:59:56;;;;;;;16.50;6.20;;;;;;;;;;5030971;28;20288;-87
2024/01/20 14:02:22;;;;;;;8.63;6.20;;;;;;;;;;5044881;28;20188;-87